Shtandart — UAEM — position and weather

sailwx.info

Track history (hours):
 
Tides and Currents Weather Stations Pressure Air Temp Water Temp Dewpoint Dewpoint Depression Visibility Wind Speed Wind Dir Waves Ship Positions

Shtandart

Re-creation of early 1700's Russian naval frigate.

Last reported at 2020-Aug-07 09:58 UTC. Time now 2020-Aug-07 10:05 UTC.
Position N 51°49' E 004°08'.

Length 26 m; draft 3 m.

Type: Sailing vessel. MMSI: 273452840.

Date/timePositionNaut miles runAvg speedWind from/ knotsBaromVisibWave heightAir tempDewpointWater temp
2020-Aug-07 09:58N 51°49' E 004°08'0 0.0
2020-Aug-07 06:31N 51°49' E 004°08'0 0.0
2020-Aug-07 04:58N 51°49' E 004°08'0 0.0
2020-Aug-07 04:28N 51°49' E 004°08'0 0.0
2020-Aug-07 04:01N 51°49' E 004°08'0 0.0
2020-Aug-07 03:31N 51°49' E 004°08'0 0.0
2020-Aug-07 00:58N 51°49' E 004°08'0 0.0
2020-Aug-06 23:28N 51°49' E 004°08'0 0.0
2020-Aug-06 21:28N 51°49' E 004°08'0 0.0
2020-Aug-06 20:01N 51°49' E 004°08'0 0.0
2020-Aug-06 15:58N 51°49' E 004°08'0 0.0
2020-Aug-06 13:28N 51°49' E 004°08'0 0.0
2020-Aug-06 06:01N 51°49' E 004°08'1 2.5
2020-Aug-06 05:30N 51°49' E 004°06'2 2.1
2020-Aug-06 04:30N 51°50' E 004°02'1 2.8
2020-Aug-06 04:00N 51°51' E 004°02'7 3.4
2020-Aug-06 02:00N 51°56' E 003°55'3 5.4
2020-Aug-06 01:30N 51°59' E 003°57'17 5.6
2020-Aug-05 22:30N 52°11' E 004°17'16 6.2
2020-Aug-05 20:00N 52°24' E 004°29'3 5.5
2020-Aug-05 19:30N 52°27' E 004°31'4 1.9
2020-Aug-05 17:30N 52°28' E 004°37'8 2.2
2020-Aug-05 14:00N 52°25' E 004°49'1 1.0
2020-Aug-05 13:00N 52°26' E 004°50'0 0.0
2020-Aug-05 12:30N 52°26' E 004°50'0 0.0
2020-Aug-05 09:30N 52°26' E 004°50'0 0.0
2020-Aug-05 06:30N 52°26' E 004°50'0 0.0
2020-Aug-05 04:30N 52°26' E 004°50'0 0.0
2020-Aug-05 00:30N 52°26' E 004°50'0 0.0
2020-Aug-04 22:31N 52°26' E 004°50'0 0.0
2020-Aug-04 21:00N 52°26' E 004°50'0 0.0
2020-Aug-04 20:00N 52°26' E 004°50'0 0.0
2020-Aug-04 17:00N 52°26' E 004°50'0 0.0
2020-Aug-04 11:00N 52°26' E 004°50'0 0.0
2020-Aug-04 09:27N 52°26' E 004°50'0 0.0
2020-Aug-04 09:00N 52°26' E 004°50'0 0.0
2020-Aug-04 08:30N 52°26' E 004°50'0 0.0
2020-Aug-04 05:00N 52°26' E 004°50'0 0.0
2020-Aug-04 04:00N 52°26' E 004°50'0 0.0
2020-Aug-04 03:00N 52°26' E 004°50'0 0.0
2020-Aug-03 22:30N 52°26' E 004°50'0 0.0
2020-Aug-03 17:30N 52°26' E 004°50'0 0.0
2020-Aug-03 16:30N 52°26' E 004°50'0 0.0
2020-Aug-03 15:30N 52°26' E 004°50'9 3.7
2020-Aug-03 13:00N 52°23' E 005°04'13 6.7
2020-Aug-03 11:00N 52°30' E 005°22'4 4.4
2020-Aug-03 10:00N 52°34' E 005°28'3 5.3
2020-Aug-03 09:30N 52°35' E 005°31'3 5.4
2020-Aug-03 09:00N 52°38' E 005°32'9 4.7
2020-Aug-03 07:00N 52°42' E 005°19'1 0.5
2020-Aug-03 05:29N 52°42' E 005°18'0 0.0
2020-Aug-03 04:29N 52°42' E 005°18'0 0.0
2020-Aug-03 03:29N 52°42' E 005°18'0 0.0
2020-Aug-02 23:59N 52°42' E 005°18'0 0.0
2020-Aug-02 17:23N 52°42' E 005°18'0 0.0
2020-Aug-02 16:29N 52°42' E 005°18'0 0.0
2020-Aug-02 13:29N 52°42' E 005°18'0 0.0
2020-Aug-02 12:59N 52°42' E 005°18'0 0.0
2020-Aug-02 12:29N 52°42' E 005°18'0 0.0
2020-Aug-02 10:29N 52°42' E 005°18'0 0.0
2020-Aug-02 09:59N 52°42' E 005°18'0 0.0
2020-Aug-02 06:29N 52°42' E 005°18'0 0.0
2020-Aug-02 05:00N 52°42' E 005°18'0 0.0
2020-Aug-02 04:30N 52°42' E 005°18'0 0.0
2020-Aug-02 04:00N 52°42' E 005°18'0 0.0
2020-Aug-02 03:00N 52°42' E 005°18'0 0.0
2020-Aug-02 02:00N 52°42' E 005°18'0 0.0
2020-Aug-02 01:00N 52°42' E 005°18'0 0.0
2020-Aug-01 22:30N 52°42' E 005°18'0 0.0
2020-Aug-01 16:01N 52°42' E 005°18'0 0.0
2020-Aug-01 14:01N 52°42' E 005°18'0 0.0
2020-Aug-01 11:31N 52°42' E 005°18'0 0.0
2020-Aug-01 09:31N 52°42' E 005°18'8 2.0
2020-Aug-01 05:26N 52°46' E 005°07'0 0.0
2020-Aug-01 02:59N 52°46' E 005°07'0 0.0
2020-Aug-01 02:26N 52°46' E 005°07'0 0.0
2020-Aug-01 00:23N 52°46' E 005°07'0 0.0
2020-Jul-31 23:59N 52°46' E 005°07'0 0.0
2020-Jul-31 21:26N 52°46' E 005°07'0 0.0
2020-Jul-31 17:59N 52°46' E 005°07'1 0.4
2020-Jul-31 15:30N 52°47' E 005°08'15 4.1
2020-Jul-31 11:58N 53°00' E 005°19'2 0.8
2020-Jul-31 09:59N 53°02' E 005°21'3 0.7
2020-Jul-31 06:28N 53°03' E 005°24'0 0.0
2020-Jul-31 05:58N 53°03' E 005°24'0 0.0
2020-Jul-31 04:58N 53°03' E 005°24'0 0.0
2020-Jul-31 03:58N 53°03' E 005°24'0 0.0
2020-Jul-31 00:58N 53°03' E 005°24'0 0.0
2020-Jul-31 00:28N 53°03' E 005°24'0 0.0
2020-Jul-30 22:28N 53°03' E 005°24'0 0.0
2020-Jul-30 21:25N 53°03' E 005°24'0 0.0
2020-Jul-30 20:28N 53°03' E 005°24'0 0.0
2020-Jul-30 19:28N 53°03' E 005°24'58 1.1
2020-Jul-28 17:00N 52°31' E 004°05'7 3.5
2020-Jul-28 15:00N 52°24' E 004°03'12 5.8
2020-Jul-28 13:00N 52°12' E 004°02'9 5.8
2020-Jul-28 11:30N 52°04' E 004°01'3 5.5
2020-Jul-28 11:00N 52°01' E 003°60'3 6.0
2020-Jul-28 10:30N 51°59' E 003°57'  
Track history (hours):
 
Tides and Currents Weather Stations Pressure Air Temp Water Temp Dewpoint Dewpoint Depression Visibility Wind Speed Wind Dir Waves Ship Positions

Shtandart

Re-creation of early 1700's Russian naval frigate.

Last reported at 2020-Aug-07 09:58 UTC. Time now 2020-Aug-07 10:05 UTC.
Position N 51°49' E 004°08'.

Length 26 m; draft 3 m.

Type: Sailing vessel. MMSI: 273452840.

Date/timePositionNaut miles runAvg speedWind from/ knotsBaromVisibWave heightAir tempDewpointWater temp
2020-Aug-07 09:58N 51°49' E 004°08'0 0.0
2020-Aug-07 06:31N 51°49' E 004°08'0 0.0
2020-Aug-07 04:58N 51°49' E 004°08'0 0.0
2020-Aug-07 04:28N 51°49' E 004°08'0 0.0
2020-Aug-07 04:01N 51°49' E 004°08'0 0.0
2020-Aug-07 03:31N 51°49' E 004°08'0 0.0
2020-Aug-07 00:58N 51°49' E 004°08'0 0.0
2020-Aug-06 23:28N 51°49' E 004°08'0 0.0
2020-Aug-06 21:28N 51°49' E 004°08'0 0.0
2020-Aug-06 20:01N 51°49' E 004°08'0 0.0
2020-Aug-06 15:58N 51°49' E 004°08'0 0.0
2020-Aug-06 13:28N 51°49' E 004°08'0 0.0
2020-Aug-06 06:01N 51°49' E 004°08'1 2.5
2020-Aug-06 05:30N 51°49' E 004°06'2 2.1
2020-Aug-06 04:30N 51°50' E 004°02'1 2.8
2020-Aug-06 04:00N 51°51' E 004°02'7 3.4
2020-Aug-06 02:00N 51°56' E 003°55'3 5.4
2020-Aug-06 01:30N 51°59' E 003°57'17 5.6
2020-Aug-05 22:30N 52°11' E 004°17'16 6.2
2020-Aug-05 20:00N 52°24' E 004°29'3 5.5
2020-Aug-05 19:30N 52°27' E 004°31'4 1.9
2020-Aug-05 17:30N 52°28' E 004°37'8 2.2
2020-Aug-05 14:00N 52°25' E 004°49'1 1.0
2020-Aug-05 13:00N 52°26' E 004°50'0 0.0
2020-Aug-05 12:30N 52°26' E 004°50'0 0.0
2020-Aug-05 09:30N 52°26' E 004°50'0 0.0
2020-Aug-05 06:30N 52°26' E 004°50'0 0.0
2020-Aug-05 04:30N 52°26' E 004°50'0 0.0
2020-Aug-05 00:30N 52°26' E 004°50'0 0.0
2020-Aug-04 22:31N 52°26' E 004°50'0 0.0
2020-Aug-04 21:00N 52°26' E 004°50'0 0.0
2020-Aug-04 20:00N 52°26' E 004°50'0 0.0
2020-Aug-04 17:00N 52°26' E 004°50'0 0.0
2020-Aug-04 11:00N 52°26' E 004°50'0 0.0
2020-Aug-04 09:27N 52°26' E 004°50'0 0.0
2020-Aug-04 09:00N 52°26' E 004°50'0 0.0
2020-Aug-04 08:30N 52°26' E 004°50'0 0.0
2020-Aug-04 05:00N 52°26' E 004°50'0 0.0
2020-Aug-04 04:00N 52°26' E 004°50'0 0.0
2020-Aug-04 03:00N 52°26' E 004°50'0 0.0
2020-Aug-03 22:30N 52°26' E 004°50'0 0.0
2020-Aug-03 17:30N 52°26' E 004°50'0 0.0
2020-Aug-03 16:30N 52°26' E 004°50'0 0.0
2020-Aug-03 15:30N 52°26' E 004°50'9 3.7
2020-Aug-03 13:00N 52°23' E 005°04'13 6.7
2020-Aug-03 11:00N 52°30' E 005°22'4 4.4
2020-Aug-03 10:00N 52°34' E 005°28'3 5.3
2020-Aug-03 09:30N 52°35' E 005°31'3 5.4
2020-Aug-03 09:00N 52°38' E 005°32'9 4.7
2020-Aug-03 07:00N 52°42' E 005°19'1 0.5
2020-Aug-03 05:29N 52°42' E 005°18'0 0.0
2020-Aug-03 04:29N 52°42' E 005°18'0 0.0
2020-Aug-03 03:29N 52°42' E 005°18'0 0.0
2020-Aug-02 23:59N 52°42' E 005°18'0 0.0
2020-Aug-02 17:23N 52°42' E 005°18'0 0.0
2020-Aug-02 16:29N 52°42' E 005°18'0 0.0
2020-Aug-02 13:29N 52°42' E 005°18'0 0.0
2020-Aug-02 12:59N 52°42' E 005°18'0 0.0
2020-Aug-02 12:29N 52°42' E 005°18'0 0.0
2020-Aug-02 10:29N 52°42' E 005°18'0 0.0
2020-Aug-02 09:59N 52°42' E 005°18'0 0.0
2020-Aug-02 06:29N 52°42' E 005°18'0 0.0
2020-Aug-02 05:00N 52°42' E 005°18'0 0.0
2020-Aug-02 04:30N 52°42' E 005°18'0 0.0
2020-Aug-02 04:00N 52°42' E 005°18'0 0.0
2020-Aug-02 03:00N 52°42' E 005°18'0 0.0
2020-Aug-02 02:00N 52°42' E 005°18'0 0.0
2020-Aug-02 01:00N 52°42' E 005°18'0 0.0
2020-Aug-01 22:30N 52°42' E 005°18'0 0.0
2020-Aug-01 16:01N 52°42' E 005°18'0 0.0
2020-Aug-01 14:01N 52°42' E 005°18'0 0.0
2020-Aug-01 11:31N 52°42' E 005°18'0 0.0
2020-Aug-01 09:31N 52°42' E 005°18'8 2.0
2020-Aug-01 05:26N 52°46' E 005°07'0 0.0
2020-Aug-01 02:59N 52°46' E 005°07'0 0.0
2020-Aug-01 02:26N 52°46' E 005°07'0 0.0
2020-Aug-01 00:23N 52°46' E 005°07'0 0.0
2020-Jul-31 23:59N 52°46' E 005°07'0 0.0
2020-Jul-31 21:26N 52°46' E 005°07'0 0.0
2020-Jul-31 17:59N 52°46' E 005°07'1 0.4
2020-Jul-31 15:30N 52°47' E 005°08'15 4.1
2020-Jul-31 11:58N 53°00' E 005°19'2 0.8
2020-Jul-31 09:59N 53°02' E 005°21'3 0.7
2020-Jul-31 06:28N 53°03' E 005°24'0 0.0
2020-Jul-31 05:58N 53°03' E 005°24'0 0.0
2020-Jul-31 04:58N 53°03' E 005°24'0 0.0
2020-Jul-31 03:58N 53°03' E 005°24'0 0.0
2020-Jul-31 00:58N 53°03' E 005°24'0 0.0
2020-Jul-31 00:28N 53°03' E 005°24'0 0.0
2020-Jul-30 22:28N 53°03' E 005°24'0 0.0
2020-Jul-30 21:25N 53°03' E 005°24'0 0.0
2020-Jul-30 20:28N 53°03' E 005°24'0 0.0
2020-Jul-30 19:28N 53°03' E 005°24'58 1.1
2020-Jul-28 17:00N 52°31' E 004°05'7 3.5
2020-Jul-28 15:00N 52°24' E 004°03'12 5.8
2020-Jul-28 13:00N 52°12' E 004°02'9 5.8
2020-Jul-28 11:30N 52°04' E 004°01'3 5.5
2020-Jul-28 11:00N 52°01' E 003°60'3 6.0
2020-Jul-28 10:30N 51°59' E 003°57'  

Dump ship's entire track history